createdAt,value
2022-07-26T00:01:01.261Z,96512.03
2022-07-26T00:02:03.066Z,96518.91
2022-07-26T00:03:04.808Z,96514.84
2022-07-26T00:04:06.591Z,96513.75
2022-07-26T00:05:09.208Z,96520.28
2022-07-26T00:06:10.794Z,96517.56
2022-07-26T00:07:12.391Z,96518.81
2022-07-26T00:08:14.068Z,96514.19
2022-07-26T00:09:15.942Z,96520.31
2022-07-26T00:10:17.526Z,96509.63
2022-07-26T00:11:20.110Z,96512.94
2022-07-26T00:12:21.678Z,96516.16
2022-07-26T00:13:23.404Z,96509.16
2022-07-26T00:14:25.211Z,96520.59
2022-07-26T00:15:27.409Z,96515.97
2022-07-26T00:16:29.847Z,96509.31
2022-07-26T00:17:31.570Z,96513.91
2022-07-26T00:18:33.601Z,96513.88
2022-07-26T00:19:35.179Z,96514.47
2022-07-26T00:20:36.892Z,96512.69
2022-07-26T00:21:40.810Z,96512.50
2022-07-26T00:22:42.557Z,96516.97
2022-07-26T00:23:44.239Z,96517.50
2022-07-26T00:24:45.907Z,96514.19
2022-07-26T00:25:47.536Z,96516.34
2022-07-26T00:26:49.107Z,96514.97
2022-07-26T00:27:50.761Z,96508.56
2022-07-26T00:28:52.349Z,96518.22
2022-07-26T00:29:53.920Z,96509.50
2022-07-26T00:30:55.508Z,96513.78
2022-07-26T00:31:57.179Z,96511.16
2022-07-26T00:32:58.918Z,96507.78
2022-07-26T00:34:00.572Z,96509.75
2022-07-26T00:35:02.237Z,96503.41
2022-07-26T00:36:04.154Z,96505.22
2022-07-26T00:37:05.761Z,96502.31
2022-07-26T00:38:07.648Z,96498.22
2022-07-26T00:39:10.906Z,96499.66
2022-07-26T00:40:13.303Z,96499.91
2022-07-26T00:41:14.952Z,96501.72
2022-07-26T00:42:17.071Z,96501.59
2022-07-26T00:43:18.736Z,96503.81
2022-07-26T00:44:20.482Z,96497.50
2022-07-26T00:45:22.475Z,96498.16
2022-07-26T00:46:24.398Z,96501.25
2022-07-26T00:47:26.172Z,96496.09
2022-07-26T00:48:27.890Z,96503.78
2022-07-26T00:49:29.501Z,96498.66
2022-07-26T00:50:31.204Z,96507.22
2022-07-26T00:51:33.100Z,96496.25
2022-07-26T00:52:34.826Z,96500.22
2022-07-26T00:53:36.462Z,96499.47
2022-07-26T00:54:40.033Z,96496.16
2022-07-26T00:55:41.892Z,96498.97
2022-07-26T00:56:44.278Z,96488.00
2022-07-26T00:57:46.577Z,96500.06
2022-07-26T00:58:48.407Z,96501.25
2022-07-26T00:59:50.830Z,96499.00
2022-07-26T01:00:52.508Z,96496.38
2022-07-26T01:01:54.393Z,96499.75
2022-07-26T01:02:57.092Z,96495.63
2022-07-26T01:03:59.108Z,96496.56
2022-07-26T01:05:01.166Z,96495.19
2022-07-26T01:06:02.917Z,96492.38
2022-07-26T01:07:14.631Z,96496.47
2022-07-26T01:08:17.189Z,96490.50
2022-07-26T01:09:19.546Z,96486.56
2022-07-26T01:10:21.725Z,96492.81
2022-07-26T01:11:23.360Z,96484.19
2022-07-26T01:12:24.979Z,96487.25
2022-07-26T01:13:29.720Z,96484.84
2022-07-26T01:14:34.791Z,96483.66
2022-07-26T01:15:36.461Z,96485.03
2022-07-26T01:16:38.371Z,96481.94
2022-07-26T01:17:41.195Z,96481.09
2022-07-26T01:18:43.026Z,96484.97
2022-07-26T01:19:44.686Z,96487.25
2022-07-26T01:20:47.909Z,96480.94
2022-07-26T01:21:52.608Z,96485.19
2022-07-26T01:22:54.160Z,96485.88
2022-07-26T01:23:55.843Z,96483.81
2022-07-26T01:24:57.438Z,96478.25
2022-07-26T01:25:59.034Z,96489.97
2022-07-26T01:27:01.075Z,96491.16
2022-07-26T01:28:05.235Z,96485.38
2022-07-26T01:29:07.013Z,96493.94
2022-07-26T01:30:11.364Z,96488.94
2022-07-26T01:31:13.049Z,96488.25
2022-07-26T01:32:14.878Z,96491.50
2022-07-26T01:33:16.497Z,96488.09
2022-07-26T01:34:18.368Z,96488.63
2022-07-26T01:35:21.395Z,96490.66
2022-07-26T01:36:23.084Z,96490.59
2022-07-26T01:37:24.685Z,96488.34
2022-07-26T01:38:27.440Z,96489.28
2022-07-26T01:39:29.170Z,96496.50
2022-07-26T01:40:30.779Z,96488.03
2022-07-26T01:41:38.372Z,96499.91
2022-07-26T01:42:41.221Z,96495.44
2022-07-26T01:43:43.300Z,96489.59
2022-07-26T01:44:44.899Z,96492.84
2022-07-26T01:45:46.655Z,96493.69
2022-07-26T01:46:48.566Z,96497.59
2022-07-26T01:47:50.405Z,96494.47
2022-07-26T01:48:52.743Z,96494.63
2022-07-26T01:49:54.372Z,96502.47
2022-07-26T01:50:55.953Z,96498.25
2022-07-26T01:51:57.568Z,96493.97
2022-07-26T01:52:59.219Z,96504.91
2022-07-26T01:54:02.010Z,96495.56
2022-07-26T01:55:03.928Z,96494.81
2022-07-26T01:56:06.016Z,96497.41
2022-07-26T01:57:07.642Z,96500.84
2022-07-26T01:58:09.357Z,96496.91
2022-07-26T01:59:10.958Z,96497.28
2022-07-26T02:00:13.030Z,96501.09
2022-07-26T02:01:14.698Z,96499.84
2022-07-26T02:02:16.438Z,96493.88
2022-07-26T02:03:18.217Z,96499.63
2022-07-26T02:04:38.453Z,96497.09
2022-07-26T02:05:40.093Z,96500.03
2022-07-26T02:06:42.013Z,96502.28
2022-07-26T02:07:45.154Z,96506.50
2022-07-26T02:08:46.791Z,96505.22
2022-07-26T02:09:48.446Z,96503.25
2022-07-26T02:11:00.572Z,96504.38
2022-07-26T02:12:05.441Z,96510.19
2022-07-26T02:13:07.199Z,96506.63
2022-07-26T02:14:10.001Z,96504.22
2022-07-26T02:15:15.396Z,96516.66
2022-07-26T02:16:16.980Z,96518.53
2022-07-26T02:17:18.720Z,96516.91
2022-07-26T02:18:20.319Z,96518.03
2022-07-26T02:19:21.960Z,96521.97
2022-07-26T02:20:23.561Z,96506.31
2022-07-26T02:21:25.130Z,96514.94
2022-07-26T02:22:26.980Z,96514.53
2022-07-26T02:23:28.938Z,96508.63
2022-07-26T02:24:30.730Z,96513.66
2022-07-26T02:25:32.682Z,96512.50
2022-07-26T02:26:34.337Z,96515.59
2022-07-26T02:27:35.949Z,96515.94
2022-07-26T02:28:37.557Z,96517.06
2022-07-26T02:29:39.220Z,96516.66
2022-07-26T02:30:41.101Z,96516.97
2022-07-26T02:31:42.886Z,96516.97
2022-07-26T02:32:50.550Z,96514.59
2022-07-26T02:33:52.111Z,96515.38
2022-07-26T02:34:53.709Z,96514.59
2022-07-26T02:35:55.585Z,96512.69
2022-07-26T02:36:57.242Z,96517.25
2022-07-26T02:38:06.629Z,96513.91
2022-07-26T02:39:08.222Z,96506.88
2022-07-26T02:40:13.240Z,96515.56
2022-07-26T02:41:18.785Z,96517.03
2022-07-26T02:42:20.433Z,96511.34
2022-07-26T02:43:22.186Z,96510.88
2022-07-26T02:44:25.155Z,96513.50
2022-07-26T02:45:27.444Z,96521.31
2022-07-26T02:46:29.217Z,96517.03
2022-07-26T02:47:32.977Z,96519.00
2022-07-26T02:48:34.609Z,96521.31
2022-07-26T02:49:36.496Z,96520.00
2022-07-26T02:50:38.175Z,96516.47
2022-07-26T02:51:39.803Z,96518.72
2022-07-26T02:52:41.360Z,96524.16
2022-07-26T02:53:42.988Z,96526.44
2022-07-26T02:54:44.609Z,96522.03
2022-07-26T02:55:46.223Z,96520.38
2022-07-26T02:56:47.787Z,96521.41
2022-07-26T02:57:50.083Z,96525.22
2022-07-26T02:58:51.702Z,96519.28
2022-07-26T02:59:53.351Z,96525.81
2022-07-26T03:00:55.218Z,96524.25
2022-07-26T03:01:56.939Z,96524.22
2022-07-26T03:02:58.996Z,96521.47
2022-07-26T03:04:01.195Z,96538.16
2022-07-26T03:05:04.029Z,96533.34
2022-07-26T03:06:05.757Z,96537.56
2022-07-26T03:07:07.321Z,96532.78
2022-07-26T03:08:08.921Z,96530.00
2022-07-26T03:09:10.658Z,96529.84
2022-07-26T03:10:12.589Z,96535.19
2022-07-26T03:11:14.581Z,96527.75
2022-07-26T03:12:16.207Z,96530.50
2022-07-26T03:13:17.966Z,96532.88
2022-07-26T03:14:19.542Z,96535.75
2022-07-26T03:15:21.269Z,96538.53
2022-07-26T03:16:27.351Z,96537.75
2022-07-26T03:17:30.921Z,96530.81
2022-07-26T03:18:33.946Z,96535.53
2022-07-26T03:19:35.572Z,96533.47
2022-07-26T03:20:37.203Z,96538.06
2022-07-26T03:21:38.904Z,96546.97
2022-07-26T03:22:40.590Z,96541.47
2022-07-26T03:23:42.267Z,96546.53
2022-07-26T03:24:43.868Z,96547.72
2022-07-26T03:25:45.478Z,96546.22
2022-07-26T03:26:47.094Z,96553.34
2022-07-26T03:27:48.749Z,96548.72
2022-07-26T03:28:50.387Z,96549.69
2022-07-26T03:29:51.991Z,96561.59
2022-07-26T03:30:53.715Z,96561.13
2022-07-26T03:31:55.533Z,96559.81
2022-07-26T03:32:57.140Z,96572.50
2022-07-26T03:34:03.929Z,96563.34
2022-07-26T03:35:07.040Z,96566.72
2022-07-26T03:36:11.448Z,96565.22
2022-07-26T03:37:13.381Z,96566.22
2022-07-26T03:38:15.065Z,96565.50
2022-07-26T03:39:16.681Z,96573.22
2022-07-26T03:40:33.521Z,96569.25
2022-07-26T03:41:35.102Z,96570.75
2022-07-26T03:42:36.920Z,96573.78
2022-07-26T03:43:38.529Z,96571.78
2022-07-26T03:44:40.139Z,96567.81
2022-07-26T03:45:42.605Z,96572.38
2022-07-26T03:46:44.245Z,96575.00
2022-07-26T03:47:46.460Z,96574.13
2022-07-26T03:48:48.152Z,96570.84
2022-07-26T03:49:49.771Z,96577.03
2022-07-26T03:50:51.341Z,96574.47
2022-07-26T03:51:53.179Z,96566.41
2022-07-26T03:52:54.874Z,96572.75
2022-07-26T03:53:56.457Z,96571.31
2022-07-26T03:54:58.698Z,96565.56
2022-07-26T03:56:19.568Z,96573.78
2022-07-26T03:57:21.152Z,96567.72
2022-07-26T03:58:22.899Z,96578.84
2022-07-26T03:59:25.585Z,96574.78
2022-07-26T04:00:27.466Z,96573.22
2022-07-26T04:01:29.809Z,96577.19
2022-07-26T04:02:31.497Z,96577.28
2022-07-26T04:03:33.089Z,96571.97
2022-07-26T04:04:35.049Z,96575.16
2022-07-26T04:05:36.985Z,96574.44
2022-07-26T04:06:39.739Z,96570.53
2022-07-26T04:07:52.509Z,96576.38
2022-07-26T04:08:55.545Z,96577.53
2022-07-26T04:09:57.135Z,96576.00
2022-07-26T04:10:59.298Z,96573.72
2022-07-26T04:12:00.904Z,96575.94
2022-07-26T04:13:02.555Z,96564.47
2022-07-26T04:14:04.720Z,96562.72
2022-07-26T04:15:07.322Z,96570.03
2022-07-26T04:16:08.949Z,96561.16
2022-07-26T04:17:10.665Z,96568.28
2022-07-26T04:18:14.303Z,96566.34
2022-07-26T04:19:16.094Z,96561.78
2022-07-26T04:20:18.127Z,96562.75
2022-07-26T04:21:20.275Z,96560.09
2022-07-26T04:22:21.884Z,96556.84
2022-07-26T04:23:23.582Z,96554.34
2022-07-26T04:24:25.664Z,96559.56
2022-07-26T04:25:27.384Z,96552.19
2022-07-26T04:26:42.253Z,96549.56
2022-07-26T04:27:43.882Z,96551.59
2022-07-26T04:28:45.460Z,96551.41
2022-07-26T04:29:47.077Z,96551.09
2022-07-26T04:30:48.779Z,96557.06
2022-07-26T04:31:50.423Z,96552.75
2022-07-26T04:32:52.224Z,96555.25
2022-07-26T04:33:53.871Z,96553.13
2022-07-26T04:34:56.351Z,96556.75
2022-07-26T04:35:57.967Z,96554.88
2022-07-26T04:36:59.581Z,96546.44
2022-07-26T04:38:02.605Z,96549.91
2022-07-26T04:39:04.232Z,96551.19
2022-07-26T04:40:06.668Z,96549.91
2022-07-26T04:41:11.160Z,96552.31
2022-07-26T04:42:13.099Z,96548.84
2022-07-26T04:43:19.211Z,96551.50
2022-07-26T04:44:20.914Z,96549.84
2022-07-26T04:45:22.536Z,96547.94
2022-07-26T04:46:25.347Z,96551.84
2022-07-26T04:47:30.494Z,96552.84
2022-07-26T04:48:32.242Z,96552.25
2022-07-26T04:49:34.031Z,96554.69
2022-07-26T04:50:35.732Z,96545.66
2022-07-26T04:51:37.988Z,96544.81
2022-07-26T04:52:40.102Z,96546.56
2022-07-26T04:53:41.722Z,96539.53
2022-07-26T04:54:43.896Z,96549.88
2022-07-26T04:55:45.617Z,96547.06
2022-07-26T04:56:47.585Z,96548.84
2022-07-26T04:57:50.212Z,96554.69
2022-07-26T04:58:51.798Z,96551.47
2022-07-26T05:00:09.934Z,96551.00
2022-07-26T05:01:15.183Z,96555.94
2022-07-26T05:02:18.396Z,96553.22
2022-07-26T05:03:22.090Z,96554.09
2022-07-26T05:04:23.734Z,96547.38
2022-07-26T05:05:26.928Z,96548.38
2022-07-26T05:06:28.592Z,96551.91
2022-07-26T05:07:46.361Z,96553.66
2022-07-26T05:08:47.981Z,96546.78
2022-07-26T05:09:49.664Z,96557.34
2022-07-26T05:10:55.446Z,96551.91
2022-07-26T05:11:57.788Z,96552.41
2022-07-26T05:12:59.721Z,96556.94
2022-07-26T05:14:01.344Z,96548.47
2022-07-26T05:15:04.374Z,96557.59
2022-07-26T05:16:11.698Z,96549.25
2022-07-26T05:17:14.004Z,96550.25
2022-07-26T05:18:19.541Z,96545.28
2022-07-26T05:19:24.959Z,96542.31
2022-07-26T05:20:26.647Z,96546.72
2022-07-26T05:21:28.281Z,96546.34
2022-07-26T05:22:29.959Z,96549.50
2022-07-26T05:23:31.552Z,96545.38
2022-07-26T05:24:33.145Z,96548.53
2022-07-26T05:25:34.962Z,96549.94
2022-07-26T05:26:36.829Z,96553.41
2022-07-26T05:27:40.671Z,96547.56
2022-07-26T05:28:42.498Z,96542.47
2022-07-26T05:29:44.280Z,96541.25
2022-07-26T05:30:47.082Z,96539.91
2022-07-26T05:31:48.745Z,96538.50
2022-07-26T05:32:50.518Z,96537.69
2022-07-26T05:33:52.163Z,96545.28
2022-07-26T05:34:53.784Z,96537.66
2022-07-26T05:35:55.356Z,96533.31
2022-07-26T05:36:57.267Z,96535.09
2022-07-26T05:37:58.986Z,96540.69
2022-07-26T05:39:00.639Z,96541.50
2022-07-26T05:40:04.399Z,96547.78
2022-07-26T05:41:06.864Z,96542.59
2022-07-26T05:42:08.700Z,96546.63
2022-07-26T05:43:10.266Z,96545.41
2022-07-26T05:44:11.963Z,96547.84
2022-07-26T05:45:13.706Z,96538.66
2022-07-26T05:46:18.365Z,96536.94
2022-07-26T05:47:19.961Z,96538.34
2022-07-26T05:48:21.554Z,96536.19
2022-07-26T05:49:23.168Z,96538.94
2022-07-26T05:50:24.882Z,96542.16
2022-07-26T05:51:26.463Z,96540.16
2022-07-26T05:52:28.211Z,96541.41
2022-07-26T05:53:30.013Z,96541.53
2022-07-26T05:54:31.580Z,96539.03
2022-07-26T05:55:33.175Z,96536.09
2022-07-26T05:56:34.785Z,96537.28
2022-07-26T05:57:36.356Z,96538.53
2022-07-26T05:58:37.988Z,96537.38
2022-07-26T05:59:39.584Z,96546.00
2022-07-26T06:00:48.250Z,96536.44
2022-07-26T06:01:50.698Z,96539.22
2022-07-26T06:02:52.514Z,96537.66
2022-07-26T06:03:54.207Z,96543.13
2022-07-26T06:04:55.928Z,96537.25
2022-07-26T06:05:58.684Z,96537.50
2022-07-26T06:07:00.258Z,96531.66
2022-07-26T06:08:01.867Z,96538.16
2022-07-26T06:09:04.173Z,96527.66
2022-07-26T06:10:06.377Z,96532.91
2022-07-26T06:11:08.256Z,96535.97
2022-07-26T06:12:10.087Z,96531.78
2022-07-26T06:13:11.882Z,96526.47
2022-07-26T06:14:14.016Z,96527.81
2022-07-26T06:15:16.145Z,96531.88
2022-07-26T06:16:17.961Z,96524.47
2022-07-26T06:17:19.761Z,96526.28
2022-07-26T06:18:21.617Z,96525.13
2022-07-26T06:19:23.508Z,96529.91
2022-07-26T06:20:25.091Z,96517.88
2022-07-26T06:21:26.784Z,96514.72
2022-07-26T06:22:28.375Z,96520.72
2022-07-26T06:23:33.636Z,96526.03
2022-07-26T06:24:36.750Z,96512.75
2022-07-26T06:25:39.004Z,96515.94
2022-07-26T06:26:40.970Z,96519.50
2022-07-26T06:27:42.692Z,96512.59
2022-07-26T06:28:44.604Z,96514.84
2022-07-26T06:29:48.626Z,96515.56
2022-07-26T06:30:50.398Z,96516.31
2022-07-26T06:31:52.406Z,96508.88
2022-07-26T06:32:54.041Z,96506.44
2022-07-26T06:33:55.771Z,96509.00
2022-07-26T06:34:57.437Z,96497.31
2022-07-26T06:35:59.162Z,96503.72
2022-07-26T06:37:00.761Z,96500.00
2022-07-26T06:38:03.119Z,96499.22
2022-07-26T06:39:04.732Z,96497.31
2022-07-26T06:40:08.087Z,96497.59
2022-07-26T06:41:09.704Z,96497.50
2022-07-26T06:42:11.737Z,96499.22
2022-07-26T06:43:13.422Z,96496.84
2022-07-26T06:44:15.236Z,96502.28
2022-07-26T06:45:16.847Z,96492.94
2022-07-26T06:46:19.497Z,96498.41
2022-07-26T06:47:21.325Z,96488.28
2022-07-26T06:48:22.971Z,96490.47
2022-07-26T06:49:25.132Z,96494.13
2022-07-26T06:50:27.035Z,96486.56
2022-07-26T06:51:29.148Z,96489.69
2022-07-26T06:52:32.798Z,96489.97
2022-07-26T06:53:34.747Z,96486.91
2022-07-26T06:54:36.365Z,96486.78
2022-07-26T06:55:37.954Z,96488.41
2022-07-26T06:56:39.934Z,96476.00
2022-07-26T06:57:44.990Z,96486.22
2022-07-26T06:58:51.939Z,96488.63
2022-07-26T06:59:53.843Z,96478.41
2022-07-26T07:00:55.638Z,96482.31
2022-07-26T07:02:00.204Z,96478.81
2022-07-26T07:03:02.155Z,96482.88
2022-07-26T07:04:03.820Z,96475.22
2022-07-26T07:05:06.139Z,96480.56
2022-07-26T07:06:08.065Z,96482.44
2022-07-26T07:07:09.758Z,96481.75
2022-07-26T07:08:14.589Z,96477.72
2022-07-26T07:09:16.664Z,96475.41
2022-07-26T07:10:19.274Z,96477.16
2022-07-26T07:11:25.571Z,96476.38
2022-07-26T07:12:27.614Z,96480.69
2022-07-26T07:13:29.188Z,96477.53
2022-07-26T07:14:31.091Z,96476.09
2022-07-26T07:15:33.002Z,96473.97
2022-07-26T07:16:34.620Z,96468.84
2022-07-26T07:17:36.419Z,96476.88
2022-07-26T07:18:38.244Z,96475.78
2022-07-26T07:19:39.943Z,96470.38
2022-07-26T07:20:41.544Z,96466.56
2022-07-26T07:21:43.236Z,96465.50
2022-07-26T07:22:44.889Z,96466.16
2022-07-26T07:23:46.543Z,96468.28
2022-07-26T07:24:48.610Z,96464.91
2022-07-26T07:25:50.663Z,96455.69
2022-07-26T07:26:52.937Z,96462.34
2022-07-26T07:27:54.521Z,96464.81
2022-07-26T07:28:56.879Z,96461.75
2022-07-26T07:29:58.450Z,96455.66
2022-07-26T07:31:00.195Z,96469.16
2022-07-26T07:32:03.619Z,96456.03
2022-07-26T07:33:05.414Z,96464.19
2022-07-26T07:34:08.087Z,96463.06
2022-07-26T07:35:12.977Z,96460.16
2022-07-26T07:36:14.828Z,96455.69
2022-07-26T07:37:17.897Z,96463.53
2022-07-26T07:38:22.400Z,96450.44
2022-07-26T07:39:27.222Z,96461.41
2022-07-26T07:40:36.752Z,96456.94
2022-07-26T07:41:39.235Z,96458.59
2022-07-26T07:42:40.845Z,96453.88
2022-07-26T07:43:42.430Z,96456.38
2022-07-26T07:44:44.046Z,96454.84
2022-07-26T07:45:48.391Z,96450.41
2022-07-26T07:46:50.632Z,96453.25
2022-07-26T07:47:52.224Z,96448.00
2022-07-26T07:48:54.075Z,96455.69
2022-07-26T07:49:55.726Z,96453.72
2022-07-26T07:50:57.302Z,96442.84
2022-07-26T07:51:58.931Z,96439.50
2022-07-26T07:53:02.173Z,96442.19
2022-07-26T07:54:05.898Z,96442.56
2022-07-26T07:55:40.986Z,96444.72
2022-07-26T07:56:30.295Z,96443.75
2022-07-26T07:57:31.935Z,96436.84
2022-07-26T07:58:33.766Z,96434.38
2022-07-26T07:59:37.098Z,96426.63
2022-07-26T08:00:41.444Z,96430.72
2022-07-26T08:01:43.160Z,96426.34
2022-07-26T08:02:47.179Z,96414.63
2022-07-26T08:03:50.422Z,96420.09
2022-07-26T08:04:54.136Z,96425.00
2022-07-26T08:05:55.743Z,96422.41
2022-07-26T08:06:57.777Z,96427.72
2022-07-26T08:07:59.631Z,96423.41
2022-07-26T08:09:01.341Z,96423.16
2022-07-26T08:10:06.125Z,96412.41
2022-07-26T08:11:08.059Z,96420.75
2022-07-26T08:12:11.151Z,96417.84
2022-07-26T08:13:13.438Z,96413.97
2022-07-26T08:14:15.069Z,96412.72
2022-07-26T08:15:16.650Z,96406.44
2022-07-26T08:16:21.155Z,96408.38
2022-07-26T08:17:22.821Z,96411.09
2022-07-26T08:18:27.201Z,96410.19
2022-07-26T08:19:42.011Z,96401.47
2022-07-26T08:20:44.476Z,96405.00
2022-07-26T08:21:46.899Z,96398.50
2022-07-26T08:22:48.630Z,96394.19
2022-07-26T08:25:09.747Z,96398.66
2022-07-26T08:26:11.502Z,96394.13
2022-07-26T08:27:14.596Z,96399.97
2022-07-26T08:28:37.484Z,96394.63
2022-07-26T08:29:38.341Z,96395.47
2022-07-26T08:30:40.044Z,96393.78
2022-07-26T08:31:41.712Z,96384.50
2022-07-26T08:32:43.416Z,96387.84
2022-07-26T08:33:46.544Z,96384.34
2022-07-26T08:34:48.558Z,96379.53
2022-07-26T08:35:50.295Z,96385.78
2022-07-26T08:37:15.377Z,96383.09
2022-07-26T08:38:13.515Z,96372.47
2022-07-26T08:39:16.168Z,96373.44
2022-07-26T08:40:18.026Z,96372.47
2022-07-26T08:41:19.813Z,96375.31
2022-07-26T08:42:23.150Z,96374.66
2022-07-26T08:43:25.166Z,96367.94
2022-07-26T08:44:26.855Z,96366.34
2022-07-26T08:45:31.157Z,96369.19
2022-07-26T08:46:36.595Z,96365.78
2022-07-26T08:48:00.834Z,96361.28
2022-07-26T08:49:02.368Z,96358.31
2022-07-26T08:50:04.244Z,96360.63
2022-07-26T08:51:11.132Z,96360.25
2022-07-26T08:52:14.541Z,96354.16
2022-07-26T08:53:16.863Z,96354.72
2022-07-26T08:54:18.500Z,96353.91
2022-07-26T08:55:21.015Z,96354.16
2022-07-26T08:56:22.652Z,96351.13
2022-07-26T08:57:24.263Z,96356.66
2022-07-26T08:58:25.968Z,96357.84
2022-07-26T08:59:27.719Z,96354.34
2022-07-26T09:00:31.237Z,96353.31
2022-07-26T09:01:33.128Z,96346.81
2022-07-26T09:02:41.754Z,96351.44
2022-07-26T09:03:45.170Z,96349.47
2022-07-26T09:04:47.388Z,96354.53
2022-07-26T09:05:49.067Z,96351.94
2022-07-26T09:06:59.835Z,96345.72
2022-07-26T09:08:22.300Z,96351.31
2022-07-26T09:09:23.993Z,96346.81
2022-07-26T09:10:26.750Z,96345.47
2022-07-26T09:11:30.025Z,96345.66
2022-07-26T09:12:33.107Z,96358.06
2022-07-26T09:13:52.615Z,96348.75
2022-07-26T09:14:54.880Z,96347.31
2022-07-26T09:16:12.422Z,96349.59
2022-07-26T09:17:16.826Z,96346.84
2022-07-26T09:18:29.393Z,96353.19
2022-07-26T09:19:31.030Z,96347.88
2022-07-26T09:20:33.300Z,96345.34
2022-07-26T09:21:36.554Z,96346.41
2022-07-26T09:22:55.268Z,96345.19
2022-07-26T09:23:58.538Z,96346.72
2022-07-26T09:25:00.356Z,96342.13
2022-07-26T09:26:05.069Z,96335.81
2022-07-26T09:27:10.192Z,96328.22
2022-07-26T09:28:44.964Z,96332.28
2022-07-26T09:30:04.341Z,96330.75
2022-07-26T09:31:06.507Z,96329.22
2022-07-26T09:32:18.461Z,96324.91
2022-07-26T09:33:20.191Z,96330.19
2022-07-26T09:34:25.746Z,96331.91
2022-07-26T09:35:50.348Z,96322.81
2022-07-26T09:36:54.684Z,96326.59
2022-07-26T09:37:56.758Z,96325.66
2022-07-26T09:39:01.621Z,96322.38
2022-07-26T09:40:06.947Z,96323.38
2022-07-26T09:41:19.427Z,96316.06
2022-07-26T09:42:30.047Z,96320.09
2022-07-26T09:43:37.623Z,96320.00
2022-07-26T09:44:48.052Z,96320.53
2022-07-26T09:46:03.125Z,96321.31
2022-07-26T09:47:05.100Z,96316.47
2022-07-26T09:48:11.495Z,96320.50
2022-07-26T09:49:18.266Z,96319.97
2022-07-26T09:50:25.627Z,96315.94
2022-07-26T09:51:41.506Z,96325.13
2022-07-26T09:52:59.397Z,96321.09
2022-07-26T09:54:01.046Z,96315.53
2022-07-26T09:55:06.296Z,96314.53
2022-07-26T09:56:08.646Z,96313.00
2022-07-26T09:57:10.915Z,96318.06
2022-07-26T09:58:14.699Z,96312.25
2022-07-26T09:59:18.589Z,96310.41
2022-07-26T10:00:20.194Z,96306.66
2022-07-26T10:01:21.801Z,96312.50
2022-07-26T10:02:23.954Z,96308.94
2022-07-26T10:03:25.673Z,96303.88
2022-07-26T10:04:27.636Z,96309.44
2022-07-26T10:05:29.548Z,96314.25
2022-07-26T10:06:32.445Z,96309.13
2022-07-26T10:07:34.531Z,96313.34
2022-07-26T10:08:36.753Z,96312.31
2022-07-26T10:09:54.674Z,96309.84
2022-07-26T10:11:04.325Z,96310.53
2022-07-26T10:12:08.964Z,96314.22
2022-07-26T10:13:11.159Z,96310.41
2022-07-26T10:14:40.707Z,96303.63
2022-07-26T10:15:47.659Z,96307.22
2022-07-26T10:16:49.886Z,96302.19
2022-07-26T10:17:51.566Z,96301.69
2022-07-26T10:18:57.843Z,96303.28
2022-07-26T10:20:10.640Z,96302.25
2022-07-26T10:21:32.431Z,96293.66
2022-07-26T10:22:45.824Z,96292.91
2022-07-26T10:23:58.438Z,96288.09
2022-07-26T10:25:18.290Z,96282.19
2022-07-26T10:26:43.138Z,96288.53
2022-07-26T10:27:48.780Z,96284.56
2022-07-26T10:28:50.711Z,96283.81
2022-07-26T10:30:18.301Z,96280.03
2022-07-26T10:31:29.954Z,96286.38
2022-07-26T10:32:34.359Z,96277.53
2022-07-26T10:33:44.656Z,96274.25
2022-07-26T10:34:46.566Z,96273.97
2022-07-26T10:35:48.193Z,96268.41
2022-07-26T10:36:58.747Z,96268.91
2022-07-26T10:38:06.296Z,96265.34
2022-07-26T10:39:12.166Z,96271.69
2022-07-26T10:40:21.128Z,96268.13
2022-07-26T10:41:35.644Z,96263.19
2022-07-26T10:42:44.854Z,96264.94
2022-07-26T10:44:16.465Z,96258.56
2022-07-26T10:45:22.896Z,96262.59
2022-07-26T10:46:28.001Z,96264.56
2022-07-26T10:47:34.865Z,96262.78
2022-07-26T10:49:06.648Z,96262.34
2022-07-26T10:50:08.504Z,96252.22
2022-07-26T10:51:26.932Z,96256.53
2022-07-26T10:52:30.359Z,96260.34
2022-07-26T10:53:32.888Z,96255.00
2022-07-26T10:54:55.873Z,96240.25
2022-07-26T10:55:58.427Z,96244.13
2022-07-26T10:57:00.042Z,96241.84
2022-07-26T10:58:01.648Z,96243.59
2022-07-26T10:59:05.285Z,96242.91
2022-07-26T11:00:11.371Z,96241.66
2022-07-26T11:01:13.122Z,96230.28
2022-07-26T11:02:19.150Z,96238.66
2022-07-26T11:03:21.150Z,96233.09
2022-07-26T11:04:23.650Z,96239.41
2022-07-26T11:05:31.067Z,96233.09
2022-07-26T11:06:32.992Z,96226.22
2022-07-26T11:07:57.950Z,96230.03
2022-07-26T11:09:10.078Z,96231.59
2022-07-26T11:10:11.658Z,96228.00
2022-07-26T11:11:14.342Z,96222.88
2022-07-26T11:12:19.296Z,96213.13
2022-07-26T11:13:25.967Z,96225.09
2022-07-26T11:14:27.620Z,96217.56
2022-07-26T11:15:29.492Z,96219.59
2022-07-26T11:16:37.631Z,96222.63
2022-07-26T11:17:39.182Z,96213.03
2022-07-26T11:18:40.800Z,96213.03
2022-07-26T11:19:42.425Z,96217.16
2022-07-26T11:20:46.513Z,96215.66
2022-07-26T11:21:59.788Z,96211.63
2022-07-26T11:23:01.531Z,96207.88
2022-07-26T11:24:04.029Z,96203.31
2022-07-26T11:25:06.078Z,96199.00
2022-07-26T11:26:18.947Z,96191.66
2022-07-26T11:27:20.660Z,96197.75
2022-07-26T11:28:22.291Z,96190.41
2022-07-26T11:29:40.189Z,96190.41
2022-07-26T11:31:00.078Z,96182.81
2022-07-26T11:32:14.515Z,96193.94
2022-07-26T11:33:18.557Z,96189.91
2022-07-26T11:34:25.618Z,96186.59
2022-07-26T11:35:30.057Z,96180.53
2022-07-26T11:36:33.050Z,96194.94
2022-07-26T11:37:34.742Z,96180.28
2022-07-26T11:38:52.666Z,96184.34
2022-07-26T11:39:54.444Z,96178.00
2022-07-26T11:40:56.271Z,96178.75
2022-07-26T11:42:04.336Z,96180.25
2022-07-26T11:43:06.086Z,96163.03
2022-07-26T11:44:23.717Z,96165.03
2022-07-26T11:45:25.309Z,96162.53
2022-07-26T11:46:38.903Z,96167.06
2022-07-26T11:47:40.652Z,96168.56
2022-07-26T11:48:47.186Z,96170.06
2022-07-26T11:50:00.094Z,96165.06
2022-07-26T11:51:14.207Z,96171.16
2022-07-26T11:52:25.683Z,96162.25
2022-07-26T11:53:27.644Z,96163.78
2022-07-26T11:54:43.362Z,96167.34
2022-07-26T11:55:47.526Z,96164.06
2022-07-26T11:56:54.945Z,96155.19
2022-07-26T11:57:57.154Z,96161.53
2022-07-26T11:58:59.034Z,96159.25
2022-07-26T12:00:01.439Z,96162.03
2022-07-26T12:01:03.433Z,96162.53
2022-07-26T12:02:09.028Z,96150.91
2022-07-26T12:03:10.695Z,96153.91
2022-07-26T12:04:24.254Z,96140.53
2022-07-26T12:05:26.077Z,96147.34
2022-07-26T12:06:28.992Z,96154.94
2022-07-26T12:07:31.334Z,96145.03
2022-07-26T12:08:48.693Z,96135.63
2022-07-26T12:09:53.547Z,96148.31
2022-07-26T12:10:55.197Z,96142.22
2022-07-26T12:11:57.153Z,96145.72
2022-07-26T12:13:12.874Z,96135.38
2022-07-26T12:14:31.689Z,96137.38
2022-07-26T12:15:44.784Z,96138.63
2022-07-26T12:16:47.783Z,96135.59
2022-07-26T12:18:00.063Z,96137.63
2022-07-26T12:19:02.114Z,96143.25
2022-07-26T12:20:15.036Z,96144.81
2022-07-26T12:21:19.104Z,96138.50
2022-07-26T12:22:22.576Z,96141.75
2022-07-26T12:23:24.248Z,96137.69
2022-07-26T12:24:46.338Z,96143.50
2022-07-26T12:25:49.361Z,96139.97
2022-07-26T12:27:05.122Z,96137.44
2022-07-26T12:28:07.699Z,96140.47
2022-07-26T12:29:24.526Z,96136.66
2022-07-26T12:30:30.346Z,96138.34
2022-07-26T12:31:34.118Z,96136.06
2022-07-26T12:32:37.897Z,96133.03
2022-07-26T12:33:49.490Z,96129.97